Hovedside
METAR-TAF:

METAR-TAF

Lufthavner :

Oljeplattform

Norne Fpso, Norge

breddegrad: 66-01-48N, lengdegrad: 008-04-48E, høyde over havet: 10 m

Gjeldene værobservasjon

Denne rapporten ble laget for 12 minutter siden, klokken 17:20 UTC
Vind 12 kt fra Vest
Temperatur 8°C
Luftfuktighet 81%
Trykk 1035 hPa
Sikt 10 km eller mer

METAR: ENNE 261720Z AUTO 28012KT 9999NDV FEW100/// 08/05 Q1035 W///S4

Tid: 19:32 (17:32 UTC)


TAF: fraværende

Værobservasjoner og værvarsel for over 4000 flyplasser (METAR- og TAF-rapporter).

Tilgjengelige stasjoner er representert av de røde og gule prikkene på kartet.

Hold musepekeren over prikken for å se navnet på stasjonen.

Klikk så for å se værobservasjoner og -varsler.

For å forandre kartet kan du klikke på den grønne knappen med svart kryss for å zoome inn, på den grønne knappen med strek for å zoome ut, eller på de grønne pilene for å se tilstøtende kart.


METAR-TAF: